CheckWX is a tool to help pilots better visualize weather data.  It is not intended as a substitute for an official pre-flight weather briefing.

23:58:25 UTC

KBRD TAF
Brainerd Lakes Regional Airport
Brainerd, Minnesota, USA
KBRD 182333Z 1900/1924 16008G19KT P6SM BKN070 FM190400 20009G15KT P6SM BKN080 FM190600 24007KT P6SM BKN200 FM191700 25009G17KT P6SM FEW200

Oct-19@
00:00 UTC

Oct-19 @ 00:00 UTC

Oct-19@
04:00 UTC

Oct-19 @ 04:00 UTC

KBRD 182333Z 1900/1924 16008G19KT P6SM BKN070
Wind
  • 160° at 8 KTS
  • {Gusting to 19 KTS
Cloud Levels
  • Broken at 7,000' AGL

Oct-19@
04:00 UTC

Oct-19 @ 04:00 UTC

Oct-19@
06:00 UTC

Oct-19 @ 06:00 UTC

FM190400 20009G15KT P6SM BKN080

From

From Standard forecast or significant change

Wind
  • 200° at 9 KTS
  • {Gusting to 15 KTS
Cloud Levels
  • Broken at 8,000' AGL

Oct-19@
06:00 UTC

Oct-19 @ 06:00 UTC

Oct-19@
17:00 UTC

Oct-19 @ 17:00 UTC

FM190600 24007KT P6SM BKN200

From

From Standard forecast or significant change

Wind
  • 240° at 7 KTS
Cloud Levels
  • Broken at 20,000' AGL

Oct-19@
17:00 UTC

Oct-19 @ 17:00 UTC

Oct-20@
00:00 UTC

Oct-20 @ 00:00 UTC

FM191700 25009G17KT P6SM FEW200

From

From Standard forecast or significant change

Wind
  • 250° at 9 KTS
  • {Gusting to 17 KTS
Cloud Levels
  • Few at 20,000' AGL